Time;durP1;ratioP1;P1;durP2;ratioP2;P2;SDS_P1;SDS_P2;PMS_P1;PMS_P2;Temp;Humidity;BMP_temperature;BMP_pressure;BME280_temperature;BME280_humidity;BME280_pressure;Samples;Min_cycle;Max_cycle;Signal;HPM_P1;HPM_P2
2022/04/25 00:01:48;;;;;;;14.27;8.70;;;;;;;;;;5009738;28;20043;-64
2022/04/25 00:04:16;;;;;;;16.83;8.77;;;;;;;;;;5001187;28;20033;-63
2022/04/25 00:06:42;;;;;;;18.60;9.15;;;;;;;;;;5001801;28;20333;-62
2022/04/25 00:09:07;;;;;;;19.67;9.20;;;;;;;;;;4999475;28;20075;-62
2022/04/25 00:11:33;;;;;;;17.00;8.70;;;;;;;;;;5001434;28;20025;-63
2022/04/25 00:13:58;;;;;;;15.25;8.95;;;;;;;;;;5001084;28;20028;-63
2022/04/25 00:16:26;;;;;;;14.48;9.07;;;;;;;;;;4998905;28;20058;-63
2022/04/25 00:18:51;;;;;;;17.67;9.43;;;;;;;;;;5015978;28;20509;-63
2022/04/25 00:21:17;;;;;;;15.65;8.80;;;;;;;;;;5000919;28;20040;-63
2022/04/25 00:23:43;;;;;;;14.32;8.82;;;;;;;;;;5002007;28;20811;-64
2022/04/25 00:26:09;;;;;;;16.60;8.80;;;;;;;;;;5001015;28;20078;-62
2022/04/25 00:28:34;;;;;;;14.93;8.93;;;;;;;;;;5014748;28;20294;-62
2022/04/25 00:31:00;;;;;;;14.27;8.73;;;;;;;;;;5001307;28;20486;-65
2022/04/25 00:33:26;;;;;;;16.42;8.13;;;;;;;;;;5000985;28;20069;-64
2022/04/25 00:35:52;;;;;;;14.40;8.23;;;;;;;;;;5000370;28;20032;-62
2022/04/25 00:38:19;;;;;;;13.63;8.70;;;;;;;;;;5001442;28;20236;-62
2022/04/25 00:40:44;;;;;;;12.48;7.70;;;;;;;;;;5004984;28;20048;-62
2022/04/25 00:43:10;;;;;;;16.35;8.48;;;;;;;;;;5005100;28;20037;-65
2022/04/25 00:45:38;;;;;;;14.35;8.02;;;;;;;;;;5004451;28;20364;-63
2022/04/25 00:48:06;;;;;;;16.27;7.80;;;;;;;;;;5002086;28;20211;-64
2022/04/25 00:50:32;;;;;;;16.30;7.97;;;;;;;;;;5003499;28;20138;-62
2022/04/25 00:53:00;;;;;;;14.40;7.95;;;;;;;;;;5005014;28;20027;-62
2022/04/25 00:55:27;;;;;;;17.20;8.43;;;;;;;;;;5003805;28;20041;-63
2022/04/25 00:57:55;;;;;;;15.23;7.38;;;;;;;;;;5018451;28;20052;-63
2022/04/25 01:00:22;;;;;;;12.60;7.25;;;;;;;;;;5004548;28;20106;-62
2022/04/25 01:02:53;;;;;;;12.68;7.28;;;;;;;;;;5003495;28;20457;-63
2022/04/25 01:05:21;;;;;;;13.27;7.32;;;;;;;;;;5004649;28;20096;-64
2022/04/25 01:07:48;;;;;;;14.90;7.15;;;;;;;;;;5004259;28;20094;-63
2022/04/25 01:10:14;;;;;;;15.13;7.60;;;;;;;;;;5003908;28;20091;-64
2022/04/25 01:12:39;;;;;;;14.25;7.78;;;;;;;;;;5004651;28;20030;-61
2022/04/25 01:15:06;;;;;;;19.15;7.90;;;;;;;;;;5003097;28;20222;-62
2022/04/25 01:17:33;;;;;;;11.45;7.20;;;;;;;;;;5017473;28;20229;-62
2022/04/25 01:20:03;;;;;;;15.35;7.60;;;;;;;;;;5003684;28;21063;-65
2022/04/25 01:22:53;;;;;;;14.68;7.35;;;;;;;;;;5001570;28;20147;-64
2022/04/25 01:28:03;;;;;;;17.00;7.38;;;;;;;;;;5003569;28;20097;-62
2022/04/25 01:30:31;;;;;;;15.00;7.32;;;;;;;;;;5002045;28;20125;-62
2022/04/25 01:32:57;;;;;;;11.25;6.68;;;;;;;;;;5004917;28;20767;-63
2022/04/25 01:35:23;;;;;;;13.32;7.03;;;;;;;;;;5003569;28;20055;-62
2022/04/25 01:37:48;;;;;;;17.85;7.75;;;;;;;;;;5003127;28;20344;-62
2022/04/25 01:40:13;;;;;;;18.75;7.93;;;;;;;;;;5003431;28;20029;-63
2022/04/25 01:42:42;;;;;;;16.50;7.00;;;;;;;;;;5004445;28;20635;-62
2022/04/25 01:45:10;;;;;;;13.57;7.57;;;;;;;;;;5017367;28;22555;-62
2022/04/25 01:47:36;;;;;;;15.93;7.18;;;;;;;;;;5003224;28;20042;-62
2022/04/25 01:50:01;;;;;;;15.57;6.95;;;;;;;;;;5002290;28;20106;-62
2022/04/25 01:52:31;;;;;;;17.08;7.40;;;;;;;;;;5002699;28;20025;-64
2022/04/25 01:54:57;;;;;;;17.30;7.43;;;;;;;;;;5002673;28;20029;-62
2022/04/25 01:57:23;;;;;;;12.60;6.55;;;;;;;;;;5003348;28;21033;-63
2022/04/25 01:59:48;;;;;;;14.20;6.60;;;;;;;;;;5002489;28;20194;-62
2022/04/25 02:02:14;;;;;;;15.48;6.88;;;;;;;;;;5003563;28;20033;-64
2022/04/25 02:04:39;;;;;;;16.38;6.95;;;;;;;;;;5002216;28;20036;-65
2022/04/25 02:07:08;;;;;;;17.48;7.78;;;;;;;;;;5003121;28;20286;-63
2022/04/25 02:09:34;;;;;;;13.73;6.45;;;;;;;;;;5000661;28;20025;-62
2022/04/25 02:11:59;;;;;;;16.13;7.22;;;;;;;;;;5002268;28;20539;-62
2022/04/25 02:14:25;;;;;;;17.52;7.65;;;;;;;;;;5002665;28;20029;-62
2022/04/25 02:16:53;;;;;;;19.35;7.70;;;;;;;;;;5002886;28;20421;-62
2022/04/25 02:19:19;;;;;;;17.63;7.00;;;;;;;;;;5002112;28;20032;-62
2022/04/25 02:21:44;;;;;;;21.85;7.18;;;;;;;;;;5002680;28;20106;-62
2022/04/25 02:24:11;;;;;;;17.67;7.63;;;;;;;;;;5002854;28;20036;-63
2022/04/25 02:26:37;;;;;;;18.83;7.28;;;;;;;;;;5002935;28;20130;-63
2022/04/25 02:29:02;;;;;;;15.77;7.95;;;;;;;;;;5017884;28;20041;-63
2022/04/25 02:31:27;;;;;;;17.02;8.20;;;;;;;;;;5002441;28;20390;-65
2022/04/25 02:33:55;;;;;;;16.50;8.50;;;;;;;;;;5001926;28;20033;-64
2022/04/25 02:36:21;;;;;;;15.50;8.48;;;;;;;;;;5002555;28;20106;-62
2022/04/25 02:38:46;;;;;;;20.92;9.30;;;;;;;;;;5003387;28;20033;-62
2022/04/25 02:41:11;;;;;;;22.90;8.57;;;;;;;;;;5002754;28;20414;-64
2022/04/25 02:43:39;;;;;;;22.05;8.13;;;;;;;;;;5003129;28;20068;-65
2022/04/25 02:46:08;;;;;;;20.38;8.30;;;;;;;;;;5003310;28;20733;-63
2022/04/25 02:48:34;;;;;;;17.27;8.05;;;;;;;;;;5017252;28;20037;-65
2022/04/25 02:51:02;;;;;;;20.95;7.97;;;;;;;;;;5001662;28;20134;-62
2022/04/25 02:53:27;;;;;;;19.30;8.35;;;;;;;;;;5002386;28;20639;-66
2022/04/25 02:55:53;;;;;;;19.70;7.72;;;;;;;;;;5017118;28;20529;-67
2022/04/25 02:58:19;;;;;;;21.10;8.48;;;;;;;;;;5002151;28;20576;-65
2022/04/25 03:00:50;;;;;;;22.33;8.85;;;;;;;;;;5015930;28;20177;-62
2022/04/25 03:03:16;;;;;;;17.02;7.65;;;;;;;;;;4984039;28;20037;-65
2022/04/25 03:05:43;;;;;;;17.92;8.48;;;;;;;;;;5003576;28;20495;-64
2022/04/25 03:08:09;;;;;;;18.85;9.32;;;;;;;;;;5002239;28;20091;-64
2022/04/25 03:10:34;;;;;;;19.63;8.90;;;;;;;;;;5002059;28;20484;-64
2022/04/25 03:13:05;;;;;;;21.58;8.75;;;;;;;;;;5001877;28;20033;-64
2022/04/25 03:15:31;;;;;;;20.67;8.73;;;;;;;;;;4999084;28;20036;-64
2022/04/25 03:17:56;;;;;;;15.55;8.55;;;;;;;;;;5002205;28;20384;-64
2022/04/25 03:20:23;;;;;;;20.17;8.45;;;;;;;;;;5001845;28;20033;-64
2022/04/25 03:22:50;;;;;;;16.15;8.75;;;;;;;;;;5002099;28;20485;-62
2022/04/25 03:25:15;;;;;;;20.83;9.23;;;;;;;;;;5002147;28;20059;-62
2022/04/25 03:27:41;;;;;;;19.98;8.75;;;;;;;;;;4999827;28;20044;-63
2022/04/25 03:30:06;;;;;;;18.65;9.07;;;;;;;;;;5001597;28;20033;-63
2022/04/25 03:32:32;;;;;;;15.77;9.18;;;;;;;;;;5001189;28;20049;-62
2022/04/25 03:34:58;;;;;;;20.08;9.63;;;;;;;;;;5001653;28;20140;-63
2022/04/25 03:37:26;;;;;;;22.10;9.50;;;;;;;;;;5001842;28;20588;-65
2022/04/25 03:39:51;;;;;;;19.08;10.18;;;;;;;;;;5001157;28;20036;-63
2022/04/25 03:42:17;;;;;;;21.73;10.20;;;;;;;;;;5000738;28;20321;-62
2022/04/25 03:44:42;;;;;;;16.17;9.60;;;;;;;;;;5000089;28;20037;-62
2022/04/25 03:47:08;;;;;;;21.73;9.95;;;;;;;;;;5011547;28;20145;-63
2022/04/25 03:49:34;;;;;;;20.85;10.13;;;;;;;;;;5000436;28;20413;-63
2022/04/25 03:52:00;;;;;;;21.75;9.85;;;;;;;;;;5009768;28;20972;-62
2022/04/25 03:57:10;;;;;;;20.00;9.43;;;;;;;;;;5001098;28;20451;-63
2022/04/25 03:59:35;;;;;;;19.42;10.13;;;;;;;;;;5002176;28;21717;-63
2022/04/25 04:02:00;;;;;;;19.77;9.32;;;;;;;;;;5002080;28;20333;-62
2022/04/25 04:04:26;;;;;;;23.10;10.40;;;;;;;;;;5000989;28;20397;-62
2022/04/25 04:06:54;;;;;;;20.25;10.07;;;;;;;;;;5001589;28;20131;-63
2022/04/25 04:12:04;;;;;;;23.05;10.05;;;;;;;;;;5001071;28;20555;-62
2022/04/25 04:14:29;;;;;;;24.92;10.88;;;;;;;;;;5003354;28;20034;-62
2022/04/25 04:16:54;;;;;;;21.48;10.50;;;;;;;;;;5003027;28;20039;-63
2022/04/25 04:19:20;;;;;;;22.15;10.80;;;;;;;;;;5004901;28;20659;-65
2022/04/25 04:21:45;;;;;;;19.92;10.63;;;;;;;;;;5018957;28;21858;-62
2022/04/25 04:24:11;;;;;;;21.00;11.30;;;;;;;;;;5005453;28;20041;-62
2022/04/25 04:26:38;;;;;;;21.40;11.00;;;;;;;;;;5004939;28;20067;-62
2022/04/25 04:29:06;;;;;;;26.17;10.88;;;;;;;;;;5019348;28;20483;-64
2022/04/25 04:31:31;;;;;;;20.15;10.82;;;;;;;;;;5002001;28;20142;-63
2022/04/25 04:33:56;;;;;;;22.17;10.70;;;;;;;;;;5002522;28;20752;-62
2022/04/25 04:36:22;;;;;;;24.10;10.65;;;;;;;;;;5004189;28;20242;-61
2022/04/25 04:38:50;;;;;;;21.02;10.38;;;;;;;;;;5004543;28;20025;-64
2022/04/25 04:41:17;;;;;;;21.42;10.05;;;;;;;;;;5019170;28;20025;-62
2022/04/25 04:43:43;;;;;;;17.45;10.13;;;;;;;;;;5005434;28;20315;-62
2022/04/25 04:46:08;;;;;;;18.95;9.88;;;;;;;;;;5003567;28;20033;-61
2022/04/25 04:48:34;;;;;;;20.98;10.32;;;;;;;;;;5004651;28;20331;-62
2022/04/25 04:51:00;;;;;;;18.58;10.68;;;;;;;;;;5003719;28;21089;-62
2022/04/25 04:53:26;;;;;;;21.17;10.57;;;;;;;;;;5004659;28;20128;-63
2022/04/25 04:55:52;;;;;;;23.33;10.93;;;;;;;;;;5002734;28;20033;-62
2022/04/25 04:58:20;;;;;;;18.38;10.48;;;;;;;;;;5004028;28;20013;-65
2022/04/25 05:00:46;;;;;;;26.83;10.88;;;;;;;;;;5004885;28;20363;-62
2022/04/25 05:03:16;;;;;;;24.38;11.07;;;;;;;;;;5006237;28;20040;-62
2022/04/25 05:05:42;;;;;;;17.85;11.50;;;;;;;;;;5004565;28;20788;-61
2022/04/25 05:08:08;;;;;;;22.35;11.63;;;;;;;;;;5004077;28;20557;-61
2022/04/25 05:10:33;;;;;;;19.65;11.82;;;;;;;;;;5003997;28;20213;-63
2022/04/25 05:12:58;;;;;;;19.35;11.60;;;;;;;;;;5018235;28;20087;-63
2022/04/25 05:15:26;;;;;;;22.33;12.98;;;;;;;;;;5001981;28;20414;-61
2022/04/25 05:17:55;;;;;;;21.42;12.43;;;;;;;;;;5004435;28;20293;-63
2022/04/25 05:20:25;;;;;;;24.08;12.63;;;;;;;;;;5002806;28;20194;-62
2022/04/25 05:22:51;;;;;;;20.40;13.05;;;;;;;;;;5003392;28;20668;-62
2022/04/25 05:25:17;;;;;;;25.45;13.57;;;;;;;;;;5002534;28;20028;-62
2022/04/25 05:27:43;;;;;;;21.27;12.68;;;;;;;;;;5003414;28;20035;-62
2022/04/25 05:30:09;;;;;;;23.02;12.98;;;;;;;;;;5002085;28;20041;-62
2022/04/25 05:32:43;;;;;;;28.25;13.70;;;;;;;;;;5017812;28;20049;-62
2022/04/25 05:35:11;;;;;;;26.08;13.23;;;;;;;;;;5002936;28;21766;-62
2022/04/25 05:37:38;;;;;;;26.83;13.13;;;;;;;;;;5004043;28;20436;-64
2022/04/25 05:40:04;;;;;;;23.85;13.73;;;;;;;;;;5001106;28;20018;-62
2022/04/25 05:42:32;;;;;;;23.38;13.45;;;;;;;;;;5004643;28;20032;-62
2022/04/25 05:45:00;;;;;;;26.25;14.18;;;;;;;;;;5003077;28;20619;-62
2022/04/25 05:47:26;;;;;;;22.60;14.07;;;;;;;;;;5004547;28;20029;-63
2022/04/25 05:52:36;;;;;;;23.90;14.10;;;;;;;;;;5003249;28;20029;-63
2022/04/25 05:55:04;;;;;;;21.20;14.23;;;;;;;;;;5001196;28;20099;-63
2022/04/25 05:57:33;;;;;;;23.92;15.30;;;;;;;;;;5003652;28;20032;-62
2022/04/25 06:00:01;;;;;;;26.83;14.57;;;;;;;;;;5002007;28;20509;-63
2022/04/25 06:02:26;;;;;;;21.50;14.38;;;;;;;;;;5017753;28;20028;-62
2022/04/25 06:04:51;;;;;;;21.77;14.57;;;;;;;;;;5002488;28;20037;-63
2022/04/25 06:07:17;;;;;;;21.58;14.32;;;;;;;;;;5003094;28;20279;-63
2022/04/25 06:09:42;;;;;;;24.30;14.13;;;;;;;;;;5003031;28;20025;-62
2022/04/25 06:12:09;;;;;;;24.77;14.45;;;;;;;;;;5000798;28;20485;-63
2022/04/25 06:14:38;;;;;;;27.75;15.18;;;;;;;;;;5001195;28;20025;-62
2022/04/25 06:17:03;;;;;;;24.92;14.30;;;;;;;;;;4998664;28;20471;-63
2022/04/25 06:19:28;;;;;;;24.35;14.82;;;;;;;;;;5000274;28;20984;-63
2022/04/25 06:21:54;;;;;;;25.17;14.25;;;;;;;;;;5011995;28;20068;-63
2022/04/25 06:24:19;;;;;;;19.13;13.45;;;;;;;;;;5000038;28;20049;-63
2022/04/25 06:26:47;;;;;;;23.50;13.65;;;;;;;;;;5002857;28;20124;-62
2022/04/25 06:29:13;;;;;;;20.83;13.75;;;;;;;;;;5001036;28;20417;-62
2022/04/25 06:31:38;;;;;;;27.65;13.98;;;;;;;;;;5015448;28;20511;-63
2022/04/25 06:34:03;;;;;;;24.55;14.60;;;;;;;;;;4999614;28;20475;-62
2022/04/25 06:36:32;;;;;;;26.55;13.55;;;;;;;;;;5000195;28;20429;-62
2022/04/25 06:39:00;;;;;;;20.45;13.68;;;;;;;;;;5015947;28;20382;-62
2022/04/25 06:41:25;;;;;;;23.25;13.57;;;;;;;;;;5011594;28;20041;-63
2022/04/25 06:43:50;;;;;;;21.00;13.02;;;;;;;;;;5003107;28;20029;-62
2022/04/25 06:46:16;;;;;;;21.23;12.48;;;;;;;;;;5002350;28;20424;-63
2022/04/25 06:49:19;;;;;;;21.42;12.93;;;;;;;;;;5002916;28;20086;-63
2022/04/25 06:51:27;;;;;;;19.58;12.70;;;;;;;;;;5002235;28;20930;-63
2022/04/25 06:53:53;;;;;;;20.15;13.05;;;;;;;;;;5002804;28;20036;-64
2022/04/25 06:56:19;;;;;;;20.83;12.82;;;;;;;;;;5017099;28;20155;-64
2022/04/25 06:58:44;;;;;;;18.25;11.90;;;;;;;;;;5002816;28;20380;-63
2022/04/25 07:01:09;;;;;;;20.17;11.93;;;;;;;;;;5000463;28;20226;-63
2022/04/25 07:03:34;;;;;;;20.15;11.77;;;;;;;;;;5017003;28;20659;-62
2022/04/25 07:06:00;;;;;;;20.00;11.70;;;;;;;;;;5001399;28;20127;-64
2022/04/25 07:08:26;;;;;;;20.33;11.13;;;;;;;;;;5016640;28;20136;-64
2022/04/25 07:10:51;;;;;;;17.52;11.35;;;;;;;;;;5005113;28;20568;-64
2022/04/25 07:13:17;;;;;;;18.00;10.77;;;;;;;;;;5005718;28;20034;-63
2022/04/25 07:15:42;;;;;;;17.23;11.10;;;;;;;;;;5004773;28;20032;-63
2022/04/25 07:18:08;;;;;;;18.67;11.10;;;;;;;;;;5004969;28;20434;-64
2022/04/25 07:20:41;;;;;;;20.35;12.18;;;;;;;;;;5002582;28;20119;-64
2022/04/25 07:28:51;;;;;;;18.67;10.77;;;;;;;;;;5006721;28;20037;-63
2022/04/25 07:31:16;;;;;;;20.60;10.55;;;;;;;;;;5006354;28;20179;-64
2022/04/25 07:33:43;;;;;;;22.25;10.52;;;;;;;;;;4999288;28;20106;-62
2022/04/25 07:36:09;;;;;;;18.15;10.30;;;;;;;;;;4986989;28;20230;-64
2022/04/25 07:38:35;;;;;;;15.60;10.25;;;;;;;;;;5005382;28;22446;-61
2022/04/25 07:41:01;;;;;;;16.90;10.68;;;;;;;;;;5003669;28;20029;-63
2022/04/25 07:43:29;;;;;;;15.18;10.20;;;;;;;;;;5005614;28;20029;-64
2022/04/25 07:45:54;;;;;;;14.00;9.95;;;;;;;;;;5004973;28;20169;-65
2022/04/25 07:48:20;;;;;;;18.08;10.63;;;;;;;;;;5004221;28;20472;-64
2022/04/25 07:50:48;;;;;;;18.58;9.40;;;;;;;;;;5005536;28;20029;-65
2022/04/25 07:53:14;;;;;;;17.17;9.45;;;;;;;;;;5006136;28;20547;-65
2022/04/25 07:55:39;;;;;;;16.52;9.70;;;;;;;;;;5004682;28;20201;-64
2022/04/25 07:58:04;;;;;;;14.95;9.32;;;;;;;;;;5021754;28;20041;-64
2022/04/25 08:00:30;;;;;;;17.60;9.25;;;;;;;;;;5004971;28;20859;-63
2022/04/25 08:02:55;;;;;;;16.80;9.45;;;;;;;;;;5006604;28;20045;-65
2022/04/25 08:05:21;;;;;;;15.05;9.48;;;;;;;;;;5006488;28;20053;-64
2022/04/25 08:07:46;;;;;;;14.10;9.27;;;;;;;;;;5016618;28;20264;-64
2022/04/25 08:10:12;;;;;;;21.45;9.68;;;;;;;;;;5021382;28;20172;-63
2022/04/25 08:18:08;;;;;;;17.48;10.10;;;;;;;;;;5007093;28;20415;-64
2022/04/25 08:20:34;;;;;;;13.90;9.82;;;;;;;;;;5006611;28;21877;-64
2022/04/25 08:23:03;;;;;;;18.80;9.55;;;;;;;;;;5006734;28;20025;-70
2022/04/25 08:25:31;;;;;;;18.52;9.88;;;;;;;;;;5007344;28;20685;-63
2022/04/25 08:28:00;;;;;;;15.52;9.57;;;;;;;;;;5007391;28;20067;-69
2022/04/25 08:30:25;;;;;;;15.48;9.23;;;;;;;;;;5006450;28;20433;-70
2022/04/25 08:32:51;;;;;;;15.45;9.30;;;;;;;;;;5004247;28;20142;-70
2022/04/25 08:35:17;;;;;;;13.00;8.73;;;;;;;;;;5007466;28;20069;-69
2022/04/25 08:37:43;;;;;;;14.98;9.05;;;;;;;;;;5007084;28;20424;-69
2022/04/25 08:40:09;;;;;;;17.75;9.77;;;;;;;;;;5006648;28;20079;-69
2022/04/25 08:42:35;;;;;;;13.98;9.30;;;;;;;;;;5004037;28;20068;-68
2022/04/25 08:45:02;;;;;;;16.60;9.35;;;;;;;;;;5004327;28;20746;-68
2022/04/25 08:47:29;;;;;;;15.27;9.52;;;;;;;;;;5005845;28;20054;-67
2022/04/25 08:49:58;;;;;;;15.77;9.57;;;;;;;;;;5006742;28;20061;-69
2022/04/25 08:52:25;;;;;;;16.25;9.73;;;;;;;;;;5006348;28;20032;-66
2022/04/25 08:54:51;;;;;;;15.18;9.02;;;;;;;;;;5005858;28;20029;-65
2022/04/25 08:57:17;;;;;;;18.77;9.15;;;;;;;;;;5005329;28;20056;-65
2022/04/25 08:59:43;;;;;;;15.88;9.73;;;;;;;;;;5005357;28;20342;-64
2022/04/25 09:02:09;;;;;;;15.25;9.05;;;;;;;;;;5004027;28;20044;-64
2022/04/25 09:04:36;;;;;;;15.13;8.25;;;;;;;;;;5005167;28;20754;-64
2022/04/25 09:07:02;;;;;;;12.88;8.32;;;;;;;;;;5005692;28;20325;-64
2022/04/25 09:09:27;;;;;;;12.82;8.25;;;;;;;;;;5005543;28;20532;-64
2022/04/25 09:12:14;;;;;;;14.52;8.85;;;;;;;;;;5005979;28;20508;-64
2022/04/25 09:14:41;;;;;;;14.48;8.75;;;;;;;;;;5005671;28;20029;-65
2022/04/25 09:17:07;;;;;;;15.20;9.10;;;;;;;;;;5005372;28;20029;-64
2022/04/25 09:19:33;;;;;;;15.35;9.43;;;;;;;;;;5004771;28;20325;-66
2022/04/25 09:21:59;;;;;;;13.02;8.95;;;;;;;;;;5005752;28;20789;-66
2022/04/25 09:24:28;;;;;;;14.02;9.25;;;;;;;;;;5005074;28;20033;-65
2022/04/25 09:27:12;;;;;;;18.63;10.38;;;;;;;;;;5008642;28;20257;-66
2022/04/25 09:29:39;;;;;;;16.38;9.70;;;;;;;;;;5003784;28;20131;-65
2022/04/25 09:32:09;;;;;;;14.73;9.98;;;;;;;;;;5004652;28;20040;-66
2022/04/25 09:37:19;;;;;;;15.35;9.93;;;;;;;;;;5005100;28;20056;-66
2022/04/25 09:39:45;;;;;;;16.75;10.70;;;;;;;;;;5004780;28;20018;-65
2022/04/25 09:42:10;;;;;;;19.13;10.48;;;;;;;;;;5005341;28;20543;-65
2022/04/25 09:44:56;;;;;;;16.23;10.07;;;;;;;;;;5004507;28;20127;-66
2022/04/25 09:47:27;;;;;;;18.35;10.43;;;;;;;;;;5004539;28;20190;-64
2022/04/25 09:50:08;;;;;;;16.25;10.05;;;;;;;;;;5005441;28;21781;-65
2022/04/25 09:52:36;;;;;;;16.90;10.07;;;;;;;;;;5004589;28;20529;-64
2022/04/25 09:55:09;;;;;;;14.80;10.38;;;;;;;;;;5005387;28;20892;-64
2022/04/25 09:57:38;;;;;;;14.60;9.95;;;;;;;;;;5004573;28;20548;-65
2022/04/25 10:00:03;;;;;;;17.23;11.10;;;;;;;;;;5004698;28;20040;-67
2022/04/25 10:02:29;;;;;;;17.27;10.60;;;;;;;;;;5004560;28;20028;-66
2022/04/25 10:04:54;;;;;;;13.80;10.43;;;;;;;;;;5004124;28;20118;-67
2022/04/25 10:07:21;;;;;;;15.73;10.38;;;;;;;;;;5005041;28;20040;-66
2022/04/25 10:09:46;;;;;;;18.35;12.13;;;;;;;;;;5004877;28;20032;-66
2022/04/25 10:12:12;;;;;;;16.48;11.27;;;;;;;;;;5004519;28;20029;-66
2022/04/25 10:14:38;;;;;;;17.17;11.43;;;;;;;;;;5004260;28;20425;-64
2022/04/25 10:17:06;;;;;;;15.75;10.50;;;;;;;;;;5004500;28;20027;-64
2022/04/25 10:19:32;;;;;;;18.30;10.77;;;;;;;;;;5001975;28;20511;-62
2022/04/25 10:21:57;;;;;;;14.98;10.88;;;;;;;;;;5002679;28;20033;-62
2022/04/25 10:24:23;;;;;;;18.98;10.63;;;;;;;;;;5004086;28;20412;-63
2022/04/25 10:26:49;;;;;;;15.75;10.82;;;;;;;;;;5004080;28;20544;-64
2022/04/25 10:29:21;;;;;;;16.17;11.10;;;;;;;;;;5004358;28;20488;-65
2022/04/25 10:31:48;;;;;;;16.23;11.05;;;;;;;;;;5004625;28;20209;-66
2022/04/25 10:34:16;;;;;;;13.48;11.02;;;;;;;;;;5001526;28;20030;-63
2022/04/25 10:36:45;;;;;;;18.10;11.30;;;;;;;;;;5003539;28;20029;-65
2022/04/25 10:39:13;;;;;;;19.75;12.18;;;;;;;;;;5018291;28;20025;-63
2022/04/25 10:44:28;;;;;;;20.92;12.13;;;;;;;;;;5003706;28;20144;-63
2022/04/25 10:47:03;;;;;;;19.55;12.07;;;;;;;;;;5004046;28;20021;-63
2022/04/25 10:49:32;;;;;;;19.35;12.70;;;;;;;;;;5004004;28;20054;-62
2022/04/25 10:51:57;;;;;;;20.38;13.20;;;;;;;;;;5002978;28;20637;-65
2022/04/25 10:54:27;;;;;;;18.58;13.05;;;;;;;;;;5003632;28;20118;-64
2022/04/25 10:57:13;;;;;;;20.52;12.68;;;;;;;;;;5003538;28;20399;-63
2022/04/25 10:59:38;;;;;;;17.77;13.10;;;;;;;;;;5003231;28;20067;-64
2022/04/25 11:02:22;;;;;;;26.92;13.35;;;;;;;;;;5003974;28;20856;-64
2022/04/25 11:05:08;;;;;;;19.25;13.18;;;;;;;;;;5003268;28;20361;-62
2022/04/25 11:07:35;;;;;;;19.35;12.73;;;;;;;;;;5003284;28;20517;-63
2022/04/25 11:10:01;;;;;;;21.30;13.65;;;;;;;;;;5002125;28;20218;-64
2022/04/25 11:12:45;;;;;;;23.55;14.35;;;;;;;;;;5003377;28;20746;-63
2022/04/25 11:15:10;;;;;;;18.17;13.68;;;;;;;;;;5003461;28;20275;-62
2022/04/25 11:17:35;;;;;;;18.83;14.15;;;;;;;;;;5012696;28;20278;-63
2022/04/25 11:20:02;;;;;;;20.52;13.73;;;;;;;;;;5003233;28;20045;-63
2022/04/25 11:22:29;;;;;;;17.92;13.10;;;;;;;;;;5003234;28;20044;-63
2022/04/25 11:24:56;;;;;;;17.75;13.25;;;;;;;;;;5002889;28;20677;-63
2022/04/25 11:27:22;;;;;;;18.30;13.20;;;;;;;;;;5003274;28;20115;-64
2022/04/25 11:30:06;;;;;;;18.88;12.98;;;;;;;;;;5002805;28;20321;-63
2022/04/25 11:32:35;;;;;;;22.75;13.60;;;;;;;;;;5003483;28;20135;-63
2022/04/25 11:35:01;;;;;;;18.13;14.13;;;;;;;;;;5002578;28;20332;-63
2022/04/25 11:37:30;;;;;;;22.45;15.68;;;;;;;;;;5003004;28;20258;-62
2022/04/25 11:39:57;;;;;;;19.77;15.40;;;;;;;;;;5001790;28;20610;-62
2022/04/25 11:42:24;;;;;;;22.02;14.90;;;;;;;;;;5002796;28;20120;-63
2022/04/25 11:44:50;;;;;;;23.92;16.55;;;;;;;;;;5003066;28;20504;-62
2022/04/25 11:47:18;;;;;;;21.23;16.92;;;;;;;;;;5002764;28;20527;-63
2022/04/25 11:49:45;;;;;;;22.15;16.90;;;;;;;;;;5002742;28;20635;-63
2022/04/25 11:52:15;;;;;;;23.30;16.98;;;;;;;;;;5002693;28;20415;-62
2022/04/25 11:54:40;;;;;;;22.73;17.33;;;;;;;;;;5000913;28;20517;-64
2022/04/25 11:57:06;;;;;;;28.13;17.80;;;;;;;;;;5002782;28;20210;-63
2022/04/25 11:59:33;;;;;;;26.17;18.00;;;;;;;;;;5003196;28;20033;-64
2022/04/25 12:01:59;;;;;;;27.08;18.52;;;;;;;;;;5000902;28;20119;-64
2022/04/25 12:04:28;;;;;;;24.85;18.38;;;;;;;;;;5003002;28;20043;-63
2022/04/25 12:06:54;;;;;;;27.80;17.67;;;;;;;;;;5003056;28;20135;-62
2022/04/25 12:17:42;;;;;;;23.88;17.20;;;;;;;;;;5017629;28;20067;-63
2022/04/25 12:20:11;;;;;;;21.25;16.65;;;;;;;;;;5002342;28;20033;-64
2022/04/25 12:22:38;;;;;;;22.88;15.57;;;;;;;;;;5003462;28;20163;-63
2022/04/25 12:25:14;;;;;;;25.92;16.20;;;;;;;;;;5003456;28;20234;-62
2022/04/25 12:27:41;;;;;;;19.80;15.50;;;;;;;;;;5001176;28;20102;-63
2022/04/25 12:30:07;;;;;;;24.50;15.02;;;;;;;;;;5011924;28;20594;-62
2022/04/25 12:32:34;;;;;;;23.83;15.20;;;;;;;;;;5005980;28;20497;-63
2022/04/25 12:34:59;;;;;;;18.50;13.73;;;;;;;;;;5012399;28;20017;-62
2022/04/25 12:37:25;;;;;;;17.13;13.90;;;;;;;;;;5004067;28;20103;-62
2022/04/25 12:40:02;;;;;;;18.27;13.60;;;;;;;;;;5020137;28;20033;-64
2022/04/25 12:42:44;;;;;;;18.83;12.80;;;;;;;;;;5020767;28;20040;-63
2022/04/25 12:45:09;;;;;;;14.82;12.40;;;;;;;;;;5005826;28;20041;-62
2022/04/25 12:47:36;;;;;;;18.70;12.98;;;;;;;;;;5004024;28;20032;-62
2022/04/25 12:50:03;;;;;;;15.55;12.00;;;;;;;;;;5005877;28;20021;-64
2022/04/25 12:52:43;;;;;;;16.35;11.82;;;;;;;;;;5005424;28;20087;-63
2022/04/25 12:55:09;;;;;;;15.07;11.90;;;;;;;;;;5006003;28;20033;-63
2022/04/25 12:57:34;;;;;;;15.75;11.45;;;;;;;;;;5005274;28;20041;-62
2022/04/25 13:00:03;;;;;;;14.98;11.40;;;;;;;;;;5008287;28;20060;-63
2022/04/25 13:02:35;;;;;;;14.52;11.27;;;;;;;;;;5003170;28;20304;-63
2022/04/25 13:05:07;;;;;;;14.80;11.40;;;;;;;;;;5005329;28;20835;-63
2022/04/25 13:07:37;;;;;;;16.30;11.68;;;;;;;;;;5005283;28;20057;-63
2022/04/25 13:10:09;;;;;;;18.13;11.10;;;;;;;;;;5005308;28;20370;-63
2022/04/25 13:12:42;;;;;;;13.75;11.02;;;;;;;;;;5003579;28;20025;-64
2022/04/25 13:15:12;;;;;;;14.75;12.07;;;;;;;;;;5005496;28;20622;-63
2022/04/25 13:17:38;;;;;;;13.77;11.02;;;;;;;;;;5003013;28;20099;-62
2022/04/25 13:20:04;;;;;;;15.77;11.52;;;;;;;;;;5004609;28;20029;-62
2022/04/25 13:22:33;;;;;;;15.32;11.07;;;;;;;;;;5004495;28;20067;-63
2022/04/25 13:24:59;;;;;;;17.02;11.02;;;;;;;;;;5019125;28;20537;-62
2022/04/25 13:27:25;;;;;;;16.48;11.50;;;;;;;;;;5005346;28;20569;-63
2022/04/25 13:29:50;;;;;;;15.82;10.60;;;;;;;;;;5003076;28;20051;-62
2022/04/25 13:32:16;;;;;;;15.48;11.45;;;;;;;;;;5002593;28;20588;-63
2022/04/25 13:34:42;;;;;;;15.77;11.18;;;;;;;;;;5004084;28;20126;-62
2022/04/25 13:37:07;;;;;;;14.82;11.00;;;;;;;;;;5004632;28;20441;-63
2022/04/25 13:39:33;;;;;;;14.40;10.18;;;;;;;;;;4994858;28;20734;-62
2022/04/25 13:42:01;;;;;;;15.48;10.55;;;;;;;;;;5003096;28;20021;-61
2022/04/25 13:44:27;;;;;;;14.75;9.95;;;;;;;;;;5018937;28;20032;-62
2022/04/25 13:46:52;;;;;;;12.98;9.70;;;;;;;;;;5001999;28;20033;-64
2022/04/25 13:49:19;;;;;;;14.30;9.15;;;;;;;;;;5004597;28;20037;-62
2022/04/25 13:51:45;;;;;;;18.92;9.65;;;;;;;;;;5001861;28;20072;-63
2022/04/25 13:54:11;;;;;;;14.10;9.02;;;;;;;;;;5004301;28;20128;-63
2022/04/25 13:56:36;;;;;;;13.40;9.13;;;;;;;;;;5004065;28;20021;-63
2022/04/25 13:59:05;;;;;;;11.45;9.45;;;;;;;;;;5007602;28;20509;-63
2022/04/25 14:01:36;;;;;;;11.48;9.27;;;;;;;;;;5003910;28;20147;-63
2022/04/25 14:04:02;;;;;;;12.65;9.38;;;;;;;;;;5004175;28;20662;-62
2022/04/25 14:06:27;;;;;;;12.85;9.13;;;;;;;;;;5003910;28;20149;-61
2022/04/25 14:08:53;;;;;;;13.50;9.18;;;;;;;;;;5018833;28;20044;-62
2022/04/25 14:11:19;;;;;;;12.85;9.45;;;;;;;;;;5004157;28;20489;-62
2022/04/25 14:13:46;;;;;;;15.00;9.23;;;;;;;;;;5003856;28;20469;-63
2022/04/25 14:16:12;;;;;;;11.90;8.75;;;;;;;;;;4985876;28;20078;-62
2022/04/25 14:18:38;;;;;;;12.32;9.00;;;;;;;;;;5003423;28;20683;-62
2022/04/25 14:21:06;;;;;;;14.13;9.07;;;;;;;;;;5018132;28;20041;-62
2022/04/25 14:23:32;;;;;;;12.52;8.40;;;;;;;;;;5003606;28;20142;-63
2022/04/25 14:25:57;;;;;;;11.13;8.32;;;;;;;;;;5004179;28;20024;-62
2022/04/25 14:28:23;;;;;;;13.50;8.73;;;;;;;;;;5001451;28;20586;-62
2022/04/25 14:30:50;;;;;;;11.45;8.32;;;;;;;;;;5003390;28;20746;-62
2022/04/25 14:33:15;;;;;;;14.40;8.40;;;;;;;;;;5002054;28;20079;-63
2022/04/25 14:35:41;;;;;;;11.95;8.65;;;;;;;;;;5003298;28;20538;-62
2022/04/25 14:38:07;;;;;;;14.18;8.50;;;;;;;;;;5003741;28;20535;-63
2022/04/25 14:40:32;;;;;;;14.55;9.07;;;;;;;;;;5003286;28;20995;-63
2022/04/25 14:42:58;;;;;;;12.60;9.10;;;;;;;;;;5003623;28;20367;-63
2022/04/25 14:45:23;;;;;;;13.25;9.32;;;;;;;;;;5002491;28;20783;-63
2022/04/25 14:47:49;;;;;;;13.80;9.30;;;;;;;;;;5017697;28;20102;-62
2022/04/25 14:55:43;;;;;;;15.07;9.48;;;;;;;;;;5002899;28;20151;-63
2022/04/25 14:58:08;;;;;;;19.58;9.48;;;;;;;;;;5003150;28;20072;-63
2022/04/25 15:00:34;;;;;;;15.27;9.38;;;;;;;;;;5002818;28;20309;-63
2022/04/25 15:03:01;;;;;;;14.95;9.38;;;;;;;;;;5003588;28;20396;-63
2022/04/25 15:05:27;;;;;;;15.00;9.43;;;;;;;;;;5002806;28;20316;-63